N207BZ EGWU-EGCC
Flight info
| Callsign | N207BZ |
|---|---|
| Flight time | 0h 29m |
| Altitude | 18000 |
| Route | BUZAD T420 ELVOS |
| Aircraft | CL35/M-SDFGIRW/S |
Departure
| Time | 2026-05-07 04:58 |
|---|---|
| Airport | RAF Northolt (EGWU) |
Arrival
| Time | 2026-05-07 05:28 |
|---|---|
| Airport | Manchester Airport (EGCC) |
| Time | Latitude | Longitude | Altitude | Speed | Heading |
|---|---|---|---|---|---|
| 2026-05-07 04:12 | 51.55016 | -0.41924 | 113 ft | 0 kts | 91° |
| 2026-05-07 04:53 | 51.55016 | -0.41919 | 113 ft | 2 kts | 91° |
| 2026-05-07 04:54 | 51.55040 | -0.41878 | 115 ft | 6 kts | 6° |
| 2026-05-07 04:54 | 51.55076 | -0.41891 | 118 ft | 5 kts | 320° |
| 2026-05-07 04:54 | 51.55073 | -0.41945 | 117 ft | 7 kts | 251° |
| 2026-05-07 04:54 | 51.55049 | -0.42055 | 116 ft | 13 kts | 251° |
| 2026-05-07 04:55 | 51.55025 | -0.42195 | 115 ft | 12 kts | 282° |
| 2026-05-07 04:55 | 51.55062 | -0.42297 | 121 ft | 10 kts | 301° |
| 2026-05-07 04:55 | 51.55117 | -0.42390 | 123 ft | 14 kts | 317° |
| 2026-05-07 04:55 | 51.55149 | -0.42483 | 121 ft | 9 kts | 252° |
| 2026-05-07 04:56 | 51.55118 | -0.42618 | 116 ft | 17 kts | 251° |
| 2026-05-07 04:56 | 51.55075 | -0.42816 | 115 ft | 18 kts | 250° |
| 2026-05-07 04:56 | 51.55036 | -0.42970 | 111 ft | 13 kts | 245° |
| 2026-05-07 04:56 | 51.55012 | -0.43061 | 112 ft | 2 kts | 279° |
| 2026-05-07 04:57 | 51.55021 | -0.43057 | 112 ft | 1 kts | 39° |
| 2026-05-07 04:57 | 51.55022 | -0.43053 | 112 ft | 0 kts | 61° |
| 2026-05-07 04:58 | 51.55024 | -0.43046 | 111 ft | 7 kts | 62° |
| 2026-05-07 04:58 | 51.55079 | -0.42815 | 115 ft | 58 kts | 69° |
| 2026-05-07 04:58 | 51.55348 | -0.41626 | 133 ft | 165 kts | 70° |
| 2026-05-07 04:58 | 51.55755 | -0.39644 | 980 ft | 198 kts | 71° |
| 2026-05-07 04:59 | 51.56125 | -0.37518 | 2203 ft | 201 kts | 72° |
| 2026-05-07 04:59 | 51.56624 | -0.35412 | 3062 ft | 200 kts | 56° |
| 2026-05-07 04:59 | 51.57591 | -0.33829 | 3915 ft | 203 kts | 32° |
| 2026-05-07 04:59 | 51.58903 | -0.32947 | 4767 ft | 206 kts | 12° |
| 2026-05-07 05:00 | 51.60399 | -0.32759 | 5397 ft | 237 kts | 358° |
| 2026-05-07 05:00 | 51.62135 | -0.32851 | 6287 ft | 262 kts | 356° |
| 2026-05-07 05:00 | 51.64047 | -0.33001 | 7140 ft | 287 kts | 355° |
| 2026-05-07 05:00 | 51.66099 | -0.33203 | 8018 ft | 303 kts | 355° |
| 2026-05-07 05:01 | 51.68257 | -0.33449 | 8866 ft | 319 kts | 355° |
| 2026-05-07 05:01 | 51.70519 | -0.33731 | 9663 ft | 333 kts | 355° |
| 2026-05-07 05:01 | 51.72847 | -0.34244 | 10556 ft | 340 kts | 347° |
| 2026-05-07 05:01 | 51.75087 | -0.35447 | 11562 ft | 342 kts | 336° |
| 2026-05-07 05:02 | 51.77246 | -0.37197 | 12351 ft | 352 kts | 331° |
| 2026-05-07 05:02 | 51.79376 | -0.39194 | 13064 ft | 355 kts | 328° |
| 2026-05-07 05:02 | 51.81427 | -0.41436 | 13638 ft | 357 kts | 324° |
| 2026-05-07 05:02 | 51.83437 | -0.43803 | 14132 ft | 359 kts | 323° |
| 2026-05-07 05:03 | 51.85433 | -0.46272 | 14603 ft | 361 kts | 322° |
| 2026-05-07 05:03 | 51.87404 | -0.48789 | 15020 ft | 360 kts | 321° |
| 2026-05-07 05:03 | 51.89370 | -0.51253 | 15507 ft | 357 kts | 323° |
| 2026-05-07 05:03 | 51.91387 | -0.53564 | 15990 ft | 354 kts | 324° |
| 2026-05-07 05:04 | 51.93413 | -0.55808 | 16489 ft | 352 kts | 324° |
| 2026-05-07 05:04 | 51.95470 | -0.57971 | 16995 ft | 353 kts | 327° |
| 2026-05-07 05:04 | 51.97614 | -0.59986 | 17504 ft | 358 kts | 329° |
| 2026-05-07 05:04 | 51.99800 | -0.61959 | 17981 ft | 364 kts | 329° |
| 2026-05-07 05:05 | 52.02052 | -0.63972 | 18053 ft | 373 kts | 329° |
| 2026-05-07 05:05 | 52.04330 | -0.65999 | 18060 ft | 373 kts | 329° |
| 2026-05-07 05:05 | 52.06612 | -0.68025 | 18066 ft | 374 kts | 329° |
| 2026-05-07 05:05 | 52.08899 | -0.70056 | 18064 ft | 375 kts | 329° |
| 2026-05-07 05:06 | 52.11195 | -0.72099 | 18065 ft | 376 kts | 329° |
| 2026-05-07 05:06 | 52.13492 | -0.74142 | 18065 ft | 377 kts | 329° |
| 2026-05-07 05:06 | 52.15796 | -0.76192 | 18066 ft | 378 kts | 329° |
| 2026-05-07 05:06 | 52.18105 | -0.78248 | 18069 ft | 378 kts | 329° |
| 2026-05-07 05:07 | 52.20413 | -0.80305 | 18069 ft | 378 kts | 329° |
| 2026-05-07 05:07 | 52.22722 | -0.82364 | 18071 ft | 379 kts | 329° |
| 2026-05-07 05:07 | 52.25034 | -0.84428 | 18073 ft | 379 kts | 329° |
| 2026-05-07 05:07 | 52.27348 | -0.86495 | 18073 ft | 379 kts | 329° |
| 2026-05-07 05:08 | 52.29659 | -0.88561 | 18074 ft | 379 kts | 329° |
| 2026-05-07 05:08 | 52.31983 | -0.90639 | 18074 ft | 379 kts | 329° |
| 2026-05-07 05:08 | 52.34292 | -0.92705 | 18072 ft | 380 kts | 329° |
| 2026-05-07 05:08 | 52.36584 | -0.94861 | 18074 ft | 379 kts | 327° |
| 2026-05-07 05:09 | 52.38822 | -0.97133 | 18071 ft | 379 kts | 326° |
| 2026-05-07 05:09 | 52.41048 | -0.99449 | 18074 ft | 379 kts | 326° |
| 2026-05-07 05:09 | 52.43270 | -1.01778 | 18058 ft | 379 kts | 326° |
| 2026-05-07 05:09 | 52.45496 | -1.04120 | 18049 ft | 379 kts | 326° |
| 2026-05-07 05:10 | 52.47713 | -1.06455 | 18044 ft | 379 kts | 326° |
| 2026-05-07 05:10 | 52.49930 | -1.08794 | 18038 ft | 379 kts | 325° |
| 2026-05-07 05:10 | 52.52149 | -1.11136 | 18034 ft | 379 kts | 325° |
| 2026-05-07 05:10 | 52.54367 | -1.13477 | 18025 ft | 379 kts | 325° |
| 2026-05-07 05:11 | 52.56584 | -1.15820 | 18020 ft | 379 kts | 325° |
| 2026-05-07 05:11 | 52.58805 | -1.18171 | 18012 ft | 379 kts | 325° |
| 2026-05-07 05:11 | 52.61020 | -1.20515 | 18008 ft | 379 kts | 325° |
| 2026-05-07 05:11 | 52.63240 | -1.22868 | 18004 ft | 379 kts | 325° |
| 2026-05-07 05:12 | 52.65427 | -1.25187 | 18002 ft | 379 kts | 325° |
| 2026-05-07 05:12 | 52.67674 | -1.27571 | 18002 ft | 379 kts | 325° |
| 2026-05-07 05:12 | 52.69884 | -1.29919 | 18003 ft | 379 kts | 325° |
| 2026-05-07 05:12 | 52.72076 | -1.32249 | 18001 ft | 379 kts | 325° |
| 2026-05-07 05:13 | 52.74323 | -1.34639 | 18083 ft | 379 kts | 325° |
| 2026-05-07 05:13 | 52.76511 | -1.36971 | 18084 ft | 379 kts | 325° |
| 2026-05-07 05:13 | 52.78726 | -1.39333 | 18083 ft | 379 kts | 325° |
| 2026-05-07 05:13 | 52.80942 | -1.41697 | 18084 ft | 379 kts | 325° |
| 2026-05-07 05:14 | 52.83159 | -1.44066 | 18082 ft | 379 kts | 325° |
| 2026-05-07 05:14 | 52.85375 | -1.46436 | 18083 ft | 379 kts | 325° |
| 2026-05-07 05:14 | 52.87588 | -1.48804 | 18088 ft | 379 kts | 325° |
| 2026-05-07 05:14 | 52.89804 | -1.51177 | 18084 ft | 379 kts | 325° |
| 2026-05-07 05:15 | 52.92019 | -1.53551 | 18085 ft | 379 kts | 325° |
| 2026-05-07 05:15 | 52.94236 | -1.55927 | 18079 ft | 379 kts | 325° |
| 2026-05-07 05:15 | 52.96453 | -1.58305 | 18083 ft | 379 kts | 325° |
| 2026-05-07 05:15 | 52.98667 | -1.60686 | 18080 ft | 379 kts | 325° |
| 2026-05-07 05:16 | 53.00878 | -1.63068 | 18078 ft | 379 kts | 325° |
| 2026-05-07 05:16 | 53.03099 | -1.65462 | 17780 ft | 381 kts | 325° |
| 2026-05-07 05:16 | 53.05317 | -1.67859 | 17113 ft | 379 kts | 325° |
| 2026-05-07 05:16 | 53.07520 | -1.70230 | 16449 ft | 374 kts | 327° |
| 2026-05-07 05:17 | 53.09871 | -1.72048 | 15798 ft | 371 kts | 338° |
| 2026-05-07 05:17 | 53.12318 | -1.73305 | 15166 ft | 366 kts | 344° |
| 2026-05-07 05:17 | 53.14800 | -1.74122 | 14546 ft | 362 kts | 350° |
| 2026-05-07 05:17 | 53.17297 | -1.74481 | 13932 ft | 358 kts | 356° |
| 2026-05-07 05:18 | 53.19770 | -1.74104 | 13240 ft | 356 kts | 9° |
| 2026-05-07 05:18 | 53.22165 | -1.73113 | 12591 ft | 352 kts | 13° |
| 2026-05-07 05:18 | 53.24502 | -1.71977 | 11945 ft | 347 kts | 15° |
| 2026-05-07 05:18 | 53.26799 | -1.70823 | 11308 ft | 342 kts | 15° |
| 2026-05-07 05:19 | 53.29060 | -1.69675 | 10682 ft | 337 kts | 15° |
| 2026-05-07 05:19 | 53.31289 | -1.68545 | 10072 ft | 333 kts | 15° |
| 2026-05-07 05:19 | 53.33510 | -1.67585 | 9396 ft | 327 kts | 7° |
| 2026-05-07 05:19 | 53.35766 | -1.67415 | 8732 ft | 322 kts | 358° |
| 2026-05-07 05:20 | 53.37976 | -1.67779 | 8060 ft | 317 kts | 344° |
| 2026-05-07 05:20 | 53.39920 | -1.69423 | 7408 ft | 311 kts | 326° |
| 2026-05-07 05:20 | 53.41622 | -1.71592 | 6779 ft | 304 kts | 321° |
| 2026-05-07 05:20 | 53.43243 | -1.73818 | 6148 ft | 299 kts | 321° |
| 2026-05-07 05:21 | 53.44798 | -1.76086 | 5470 ft | 294 kts | 314° |
| 2026-05-07 05:21 | 53.46576 | -1.82183 | 4158 ft | 289 kts | 291° |
| 2026-05-07 05:21 | 53.47196 | -1.85272 | 4050 ft | 269 kts | 290° |
| 2026-05-07 05:22 | 53.47580 | -1.87193 | 4042 ft | 255 kts | 290° |
| 2026-05-07 05:22 | 53.47833 | -1.88462 | 4041 ft | 247 kts | 290° |
| 2026-05-07 05:22 | 53.48354 | -1.91088 | 3969 ft | 233 kts | 290° |
| 2026-05-07 05:22 | 53.48860 | -1.93596 | 3753 ft | 220 kts | 290° |
| 2026-05-07 05:23 | 53.49301 | -1.96004 | 3577 ft | 212 kts | 283° |
| 2026-05-07 05:23 | 53.49286 | -1.98363 | 3573 ft | 192 kts | 260° |
| 2026-05-07 05:23 | 53.48819 | -2.00413 | 3370 ft | 189 kts | 240° |
| 2026-05-07 05:23 | 53.48010 | -2.02144 | 3196 ft | 188 kts | 226° |
| 2026-05-07 05:24 | 53.47119 | -2.03731 | 3057 ft | 186 kts | 226° |
| 2026-05-07 05:24 | 53.46235 | -2.05313 | 2885 ft | 187 kts | 226° |
| 2026-05-07 05:24 | 53.45378 | -2.06959 | 2738 ft | 187 kts | 228° |
| 2026-05-07 05:24 | 53.44525 | -2.08627 | 2555 ft | 190 kts | 229° |
| 2026-05-07 05:25 | 53.43682 | -2.10342 | 2412 ft | 190 kts | 230° |
| 2026-05-07 05:25 | 53.42866 | -2.12051 | 2320 ft | 187 kts | 230° |
| 2026-05-07 05:25 | 53.42041 | -2.13743 | 2163 ft | 188 kts | 229° |
| 2026-05-07 05:25 | 53.41224 | -2.15422 | 1909 ft | 181 kts | 229° |
| 2026-05-07 05:26 | 53.40444 | -2.17041 | 1607 ft | 176 kts | 229° |
| 2026-05-07 05:26 | 53.39694 | -2.18615 | 1383 ft | 170 kts | 230° |
| 2026-05-07 05:26 | 53.38964 | -2.20135 | 1192 ft | 166 kts | 229° |
| 2026-05-07 05:26 | 53.38270 | -2.21551 | 1024 ft | 146 kts | 229° |
| 2026-05-07 05:27 | 53.37643 | -2.22837 | 749 ft | 142 kts | 230° |
| 2026-05-07 05:27 | 53.37230 | -2.23682 | 625 ft | 137 kts | 230° |
| 2026-05-07 05:27 | 53.36445 | -2.25290 | 301 ft | 129 kts | 230° |
| 2026-05-07 05:27 | 53.35934 | -2.26350 | 246 ft | 96 kts | 230° |
| 2026-05-07 05:28 | 53.35710 | -2.26806 | 238 ft | 58 kts | 231° |
| 2026-05-07 05:28 | 53.35511 | -2.27204 | 234 ft | 38 kts | 229° |
| 2026-05-07 05:28 | 53.35361 | -2.27503 | 231 ft | 32 kts | 230° |
| 2026-05-07 05:28 | 53.35251 | -2.27918 | 227 ft | 27 kts | 260° |
| 2026-05-07 05:29 | 53.35234 | -2.28090 | 227 ft | 17 kts | 261° |
| 2026-05-07 05:29 | 53.35242 | -2.28216 | 228 ft | 10 kts | 316° |
| 2026-05-07 05:29 | 53.35303 | -2.28169 | 227 ft | 12 kts | 44° |
| 2026-05-07 05:29 | 53.35374 | -2.28056 | 227 ft | 16 kts | 44° |
| 2026-05-07 05:30 | 53.35458 | -2.27930 | 227 ft | 15 kts | 24° |
| 2026-05-07 05:30 | 53.35558 | -2.27908 | 227 ft | 15 kts | 6° |
| 2026-05-07 05:30 | 53.35663 | -2.27889 | 227 ft | 15 kts | 6° |
| 2026-05-07 05:30 | 53.35763 | -2.27870 | 227 ft | 14 kts | 6° |
| 2026-05-07 05:31 | 53.35836 | -2.27863 | 229 ft | 8 kts | 345° |
| 2026-05-07 05:31 | 53.35871 | -2.27910 | 227 ft | 6 kts | 330° |
| 2026-05-07 05:31 | 53.35897 | -2.27965 | 227 ft | 7 kts | 283° |
| 2026-05-07 05:31 | 53.35899 | -2.28006 | 227 ft | 1 kts | 275° |
| 2026-05-07 05:32 | 53.35900 | -2.28012 | 227 ft | 0 kts | 275° |